sensor_id;sensor_type;location;lat;lon;timestamp;P1;durP1;ratioP1;P2;durP2;ratioP2
4634;SDS011;2330;48.158;11.816;2022-09-17T00:00:46;3.13;;;2.87;;
4634;SDS011;2330;48.158;11.816;2022-09-17T00:03:16;3.10;;;2.80;;
4634;SDS011;2330;48.158;11.816;2022-09-17T00:05:44;3.47;;;2.90;;
4634;SDS011;2330;48.158;11.816;2022-09-17T00:08:11;4.00;;;3.13;;
4634;SDS011;2330;48.158;11.816;2022-09-17T00:10:41;3.87;;;3.57;;
4634;SDS011;2330;48.158;11.816;2022-09-17T00:13:09;3.70;;;3.10;;
4634;SDS011;2330;48.158;11.816;2022-09-17T00:15:40;4.80;;;3.50;;
4634;SDS011;2330;48.158;11.816;2022-09-17T00:18:09;3.73;;;3.20;;
4634;SDS011;2330;48.158;11.816;2022-09-17T00:20:37;4.77;;;3.47;;
4634;SDS011;2330;48.158;11.816;2022-09-17T00:23:05;3.43;;;3.23;;
4634;SDS011;2330;48.158;11.816;2022-09-17T00:25:33;5.17;;;3.60;;
4634;SDS011;2330;48.158;11.816;2022-09-17T00:28:03;3.73;;;3.43;;
4634;SDS011;2330;48.158;11.816;2022-09-17T00:30:30;6.97;;;3.63;;
4634;SDS011;2330;48.158;11.816;2022-09-17T00:32:56;4.83;;;3.70;;
4634;SDS011;2330;48.158;11.816;2022-09-17T00:35:24;3.20;;;3.00;;
4634;SDS011;2330;48.158;11.816;2022-09-17T00:37:51;3.73;;;3.43;;
4634;SDS011;2330;48.158;11.816;2022-09-17T00:40:18;9.43;;;3.40;;
4634;SDS011;2330;48.158;11.816;2022-09-17T00:42:46;2.77;;;2.57;;
4634;SDS011;2330;48.158;11.816;2022-09-17T00:45:13;3.73;;;3.10;;
4634;SDS011;2330;48.158;11.816;2022-09-17T00:47:51;2.77;;;2.57;;
4634;SDS011;2330;48.158;11.816;2022-09-17T00:50:36;3.17;;;2.57;;
4634;SDS011;2330;48.158;11.816;2022-09-17T00:53:10;2.90;;;2.70;;
4634;SDS011;2330;48.158;11.816;2022-09-17T00:55:40;4.73;;;2.80;;
4634;SDS011;2330;48.158;11.816;2022-09-17T00:58:11;2.83;;;2.53;;
4634;SDS011;2330;48.158;11.816;2022-09-17T01:00:40;2.80;;;2.60;;
4634;SDS011;2330;48.158;11.816;2022-09-17T01:03:07;2.80;;;2.60;;
4634;SDS011;2330;48.158;11.816;2022-09-17T01:05:41;4.73;;;2.73;;
4634;SDS011;2330;48.158;11.816;2022-09-17T01:14:18;3.93;;;2.07;;
4634;SDS011;2330;48.158;11.816;2022-09-17T01:17:00;2.63;;;1.87;;
4634;SDS011;2330;48.158;11.816;2022-09-17T01:28:00;2.10;;;1.90;;
4634;SDS011;2330;48.158;11.816;2022-09-17T01:33:38;1.63;;;1.30;;
4634;SDS011;2330;48.158;11.816;2022-09-17T01:36:29;1.83;;;1.63;;
4634;SDS011;2330;48.158;11.816;2022-09-17T01:39:17;1.43;;;1.30;;
4634;SDS011;2330;48.158;11.816;2022-09-17T01:44:44;1.63;;;1.53;;
4634;SDS011;2330;48.158;11.816;2022-09-17T01:47:34;2.83;;;1.80;;
4634;SDS011;2330;48.158;11.816;2022-09-17T01:50:18;1.97;;;1.80;;
4634;SDS011;2330;48.158;11.816;2022-09-17T01:52:52;2.50;;;2.10;;
4634;SDS011;2330;48.158;11.816;2022-09-17T01:55:23;1.90;;;1.80;;
4634;SDS011;2330;48.158;11.816;2022-09-17T02:00:24;1.70;;;1.60;;
4634;SDS011;2330;48.158;11.816;2022-09-17T02:02:52;5.73;;;2.00;;
4634;SDS011;2330;48.158;11.816;2022-09-17T02:08:14;2.27;;;2.17;;
4634;SDS011;2330;48.158;11.816;2022-09-17T02:10:49;2.20;;;1.70;;
4634;SDS011;2330;48.158;11.816;2022-09-17T02:13:28;3.20;;;1.70;;
4634;SDS011;2330;48.158;11.816;2022-09-17T02:16:18;2.20;;;2.00;;
4634;SDS011;2330;48.158;11.816;2022-09-17T02:19:01;2.70;;;2.50;;
4634;SDS011;2330;48.158;11.816;2022-09-17T02:27:16;2.20;;;2.10;;
4634;SDS011;2330;48.158;11.816;2022-09-17T02:29:49;2.60;;;2.40;;
4634;SDS011;2330;48.158;11.816;2022-09-17T02:32:17;3.27;;;2.53;;
4634;SDS011;2330;48.158;11.816;2022-09-17T02:34:43;2.47;;;2.27;;
4634;SDS011;2330;48.158;11.816;2022-09-17T02:37:11;3.90;;;2.23;;
4634;SDS011;2330;48.158;11.816;2022-09-17T02:39:37;2.97;;;2.60;;
4634;SDS011;2330;48.158;11.816;2022-09-17T02:42:12;4.50;;;1.97;;
4634;SDS011;2330;48.158;11.816;2022-09-17T02:45:53;4.67;;;2.40;;
4634;SDS011;2330;48.158;11.816;2022-09-17T02:56:42;4.07;;;2.20;;
4634;SDS011;2330;48.158;11.816;2022-09-17T02:59:18;2.60;;;2.40;;
4634;SDS011;2330;48.158;11.816;2022-09-17T03:02:34;2.90;;;2.47;;
4634;SDS011;2330;48.158;11.816;2022-09-17T03:04:43;2.20;;;2.10;;
4634;SDS011;2330;48.158;11.816;2022-09-17T03:07:12;2.40;;;2.20;;
4634;SDS011;2330;48.158;11.816;2022-09-17T03:09:39;2.80;;;1.90;;
4634;SDS011;2330;48.158;11.816;2022-09-17T03:12:11;2.53;;;2.33;;
4634;SDS011;2330;48.158;11.816;2022-09-17T03:14:39;3.40;;;3.03;;
4634;SDS011;2330;48.158;11.816;2022-09-17T03:17:05;2.50;;;2.30;;
4634;SDS011;2330;48.158;11.816;2022-09-17T03:19:32;2.20;;;2.00;;
4634;SDS011;2330;48.158;11.816;2022-09-17T03:21:59;2.67;;;2.10;;
4634;SDS011;2330;48.158;11.816;2022-09-17T03:24:26;3.00;;;1.77;;
4634;SDS011;2330;48.158;11.816;2022-09-17T03:26:52;4.13;;;2.80;;
4634;SDS011;2330;48.158;11.816;2022-09-17T03:29:20;2.47;;;2.17;;
4634;SDS011;2330;48.158;11.816;2022-09-17T03:31:47;3.00;;;2.30;;
4634;SDS011;2330;48.158;11.816;2022-09-17T03:34:13;2.80;;;2.30;;
4634;SDS011;2330;48.158;11.816;2022-09-17T03:36:40;2.57;;;2.20;;
4634;SDS011;2330;48.158;11.816;2022-09-17T03:39:07;1.77;;;1.67;;
4634;SDS011;2330;48.158;11.816;2022-09-17T03:41:34;2.07;;;1.90;;
4634;SDS011;2330;48.158;11.816;2022-09-17T03:44:00;4.40;;;2.73;;
4634;SDS011;2330;48.158;11.816;2022-09-17T03:46:27;3.77;;;2.20;;
4634;SDS011;2330;48.158;11.816;2022-09-17T03:48:54;3.27;;;2.27;;
4634;SDS011;2330;48.158;11.816;2022-09-17T03:51:21;4.33;;;1.97;;
4634;SDS011;2330;48.158;11.816;2022-09-17T03:53:48;3.07;;;2.47;;
4634;SDS011;2330;48.158;11.816;2022-09-17T03:56:15;2.53;;;2.33;;
4634;SDS011;2330;48.158;11.816;2022-09-17T03:58:43;5.20;;;2.30;;
4634;SDS011;2330;48.158;11.816;2022-09-17T04:01:09;2.30;;;2.10;;
4634;SDS011;2330;48.158;11.816;2022-09-17T04:03:36;3.47;;;2.00;;
4634;SDS011;2330;48.158;11.816;2022-09-17T04:06:04;3.80;;;2.50;;
4634;SDS011;2330;48.158;11.816;2022-09-17T04:08:31;2.97;;;2.20;;
4634;SDS011;2330;48.158;11.816;2022-09-17T04:10:57;2.20;;;2.07;;
4634;SDS011;2330;48.158;11.816;2022-09-17T04:13:24;4.13;;;2.40;;
4634;SDS011;2330;48.158;11.816;2022-09-17T04:15:51;1.90;;;1.80;;
4634;SDS011;2330;48.158;11.816;2022-09-17T04:18:18;3.70;;;2.00;;
4634;SDS011;2330;48.158;11.816;2022-09-17T04:20:44;2.03;;;1.90;;
4634;SDS011;2330;48.158;11.816;2022-09-17T04:23:11;3.30;;;2.23;;
4634;SDS011;2330;48.158;11.816;2022-09-17T04:25:38;3.77;;;2.30;;
4634;SDS011;2330;48.158;11.816;2022-09-17T04:28:05;5.47;;;2.27;;
4634;SDS011;2330;48.158;11.816;2022-09-17T04:30:32;2.10;;;1.90;;
4634;SDS011;2330;48.158;11.816;2022-09-17T04:32:58;2.57;;;2.37;;
4634;SDS011;2330;48.158;11.816;2022-09-17T04:35:25;2.13;;;2.00;;
4634;SDS011;2330;48.158;11.816;2022-09-17T04:37:53;3.07;;;2.60;;
4634;SDS011;2330;48.158;11.816;2022-09-17T04:40:21;2.67;;;1.73;;
4634;SDS011;2330;48.158;11.816;2022-09-17T04:42:52;1.70;;;1.60;;
4634;SDS011;2330;48.158;11.816;2022-09-17T04:45:20;6.90;;;2.37;;
4634;SDS011;2330;48.158;11.816;2022-09-17T04:47:48;2.23;;;1.80;;
4634;SDS011;2330;48.158;11.816;2022-09-17T04:50:18;2.97;;;2.27;;
4634;SDS011;2330;48.158;11.816;2022-09-17T04:52:45;2.07;;;1.47;;
4634;SDS011;2330;48.158;11.816;2022-09-17T04:55:13;1.47;;;1.37;;
4634;SDS011;2330;48.158;11.816;2022-09-17T04:57:50;5.90;;;1.53;;
4634;SDS011;2330;48.158;11.816;2022-09-17T05:00:18;2.07;;;1.63;;
4634;SDS011;2330;48.158;11.816;2022-09-17T05:02:48;2.03;;;1.60;;
4634;SDS011;2330;48.158;11.816;2022-09-17T05:05:17;2.83;;;1.63;;
4634;SDS011;2330;48.158;11.816;2022-09-17T05:07:44;4.20;;;1.73;;
4634;SDS011;2330;48.158;11.816;2022-09-17T05:10:11;5.53;;;1.70;;
4634;SDS011;2330;48.158;11.816;2022-09-17T05:12:40;2.90;;;1.90;;
4634;SDS011;2330;48.158;11.816;2022-09-17T05:15:06;2.83;;;1.60;;
4634;SDS011;2330;48.158;11.816;2022-09-17T05:17:33;3.80;;;1.93;;
4634;SDS011;2330;48.158;11.816;2022-09-17T05:20:00;1.87;;;1.77;;
4634;SDS011;2330;48.158;11.816;2022-09-17T05:22:27;4.53;;;1.60;;
4634;SDS011;2330;48.158;11.816;2022-09-17T05:24:54;1.67;;;1.57;;
4634;SDS011;2330;48.158;11.816;2022-09-17T05:27:20;2.60;;;1.73;;
4634;SDS011;2330;48.158;11.816;2022-09-17T05:29:47;1.90;;;1.50;;
4634;SDS011;2330;48.158;11.816;2022-09-17T05:32:14;3.40;;;1.67;;
4634;SDS011;2330;48.158;11.816;2022-09-17T05:34:41;2.60;;;1.70;;
4634;SDS011;2330;48.158;11.816;2022-09-17T05:37:11;4.17;;;1.60;;
4634;SDS011;2330;48.158;11.816;2022-09-17T05:39:39;1.77;;;1.67;;
4634;SDS011;2330;48.158;11.816;2022-09-17T05:42:05;4.17;;;2.17;;
4634;SDS011;2330;48.158;11.816;2022-09-17T05:44:32;3.20;;;1.73;;
4634;SDS011;2330;48.158;11.816;2022-09-17T05:46:59;2.97;;;1.93;;
4634;SDS011;2330;48.158;11.816;2022-09-17T05:49:26;2.10;;;1.90;;
4634;SDS011;2330;48.158;11.816;2022-09-17T05:51:52;3.30;;;1.80;;
4634;SDS011;2330;48.158;11.816;2022-09-17T05:54:19;7.17;;;2.10;;
4634;SDS011;2330;48.158;11.816;2022-09-17T05:56:46;2.07;;;1.80;;
4634;SDS011;2330;48.158;11.816;2022-09-17T05:59:12;3.77;;;2.13;;
4634;SDS011;2330;48.158;11.816;2022-09-17T06:01:40;2.73;;;1.67;;
4634;SDS011;2330;48.158;11.816;2022-09-17T06:04:07;3.97;;;2.03;;
4634;SDS011;2330;48.158;11.816;2022-09-17T06:06:34;4.83;;;1.73;;
4634;SDS011;2330;48.158;11.816;2022-09-17T06:09:03;3.30;;;1.70;;
4634;SDS011;2330;48.158;11.816;2022-09-17T06:11:31;5.03;;;1.53;;
4634;SDS011;2330;48.158;11.816;2022-09-17T06:13:58;4.60;;;1.70;;
4634;SDS011;2330;48.158;11.816;2022-09-17T06:16:25;1.97;;;1.70;;
4634;SDS011;2330;48.158;11.816;2022-09-17T06:18:52;3.93;;;1.70;;
4634;SDS011;2330;48.158;11.816;2022-09-17T06:21:23;2.70;;;1.70;;
4634;SDS011;2330;48.158;11.816;2022-09-17T06:23:50;3.60;;;1.97;;
4634;SDS011;2330;48.158;11.816;2022-09-17T06:26:17;3.20;;;1.90;;
4634;SDS011;2330;48.158;11.816;2022-09-17T06:28:44;2.13;;;1.53;;
4634;SDS011;2330;48.158;11.816;2022-09-17T06:31:11;4.20;;;1.67;;
4634;SDS011;2330;48.158;11.816;2022-09-17T06:33:39;4.07;;;1.67;;
4634;SDS011;2330;48.158;11.816;2022-09-17T06:36:07;3.10;;;1.50;;
4634;SDS011;2330;48.158;11.816;2022-09-17T06:38:39;2.90;;;1.67;;
4634;SDS011;2330;48.158;11.816;2022-09-17T06:41:06;1.70;;;1.53;;
4634;SDS011;2330;48.158;11.816;2022-09-17T06:43:33;3.83;;;1.63;;
4634;SDS011;2330;48.158;11.816;2022-09-17T06:46:01;6.17;;;1.77;;
4634;SDS011;2330;48.158;11.816;2022-09-17T06:48:32;3.27;;;1.43;;
4634;SDS011;2330;48.158;11.816;2022-09-17T06:51:00;3.23;;;1.50;;
4634;SDS011;2330;48.158;11.816;2022-09-17T06:53:29;3.27;;;1.30;;
4634;SDS011;2330;48.158;11.816;2022-09-17T06:55:57;3.13;;;1.33;;
4634;SDS011;2330;48.158;11.816;2022-09-17T06:58:31;4.00;;;1.27;;
4634;SDS011;2330;48.158;11.816;2022-09-17T07:00:59;4.30;;;1.70;;
4634;SDS011;2330;48.158;11.816;2022-09-17T07:03:27;3.47;;;1.40;;
4634;SDS011;2330;48.158;11.816;2022-09-17T07:05:54;3.57;;;1.40;;
4634;SDS011;2330;48.158;11.816;2022-09-17T07:08:22;3.83;;;1.90;;
4634;SDS011;2330;48.158;11.816;2022-09-17T07:10:49;3.97;;;1.20;;
4634;SDS011;2330;48.158;11.816;2022-09-17T07:13:16;5.70;;;1.50;;
4634;SDS011;2330;48.158;11.816;2022-09-17T07:15:43;1.80;;;1.47;;
4634;SDS011;2330;48.158;11.816;2022-09-17T07:18:21;6.90;;;2.00;;
4634;SDS011;2330;48.158;11.816;2022-09-17T07:20:55;3.73;;;1.40;;
4634;SDS011;2330;48.158;11.816;2022-09-17T07:23:27;3.53;;;1.80;;
4634;SDS011;2330;48.158;11.816;2022-09-17T07:25:57;4.90;;;1.60;;
4634;SDS011;2330;48.158;11.816;2022-09-17T07:28:25;3.40;;;1.50;;
4634;SDS011;2330;48.158;11.816;2022-09-17T07:30:54;3.33;;;1.60;;
4634;SDS011;2330;48.158;11.816;2022-09-17T07:33:22;6.13;;;1.40;;
4634;SDS011;2330;48.158;11.816;2022-09-17T07:35:55;4.03;;;1.30;;
4634;SDS011;2330;48.158;11.816;2022-09-17T07:38:23;4.30;;;1.27;;
4634;SDS011;2330;48.158;11.816;2022-09-17T07:40:54;4.20;;;1.50;;
4634;SDS011;2330;48.158;11.816;2022-09-17T07:43:23;4.47;;;1.90;;
4634;SDS011;2330;48.158;11.816;2022-09-17T07:45:51;3.30;;;1.77;;
4634;SDS011;2330;48.158;11.816;2022-09-17T07:48:19;4.23;;;1.70;;
4634;SDS011;2330;48.158;11.816;2022-09-17T07:50:46;3.20;;;1.43;;
4634;SDS011;2330;48.158;11.816;2022-09-17T07:53:13;4.10;;;2.00;;
4634;SDS011;2330;48.158;11.816;2022-09-17T07:55:40;4.00;;;2.00;;
4634;SDS011;2330;48.158;11.816;2022-09-17T07:58:07;3.70;;;1.57;;
4634;SDS011;2330;48.158;11.816;2022-09-17T08:00:34;2.63;;;1.40;;
4634;SDS011;2330;48.158;11.816;2022-09-17T08:03:01;3.33;;;1.37;;
4634;SDS011;2330;48.158;11.816;2022-09-17T08:05:28;1.87;;;1.20;;
4634;SDS011;2330;48.158;11.816;2022-09-17T08:07:57;3.03;;;1.50;;
4634;SDS011;2330;48.158;11.816;2022-09-17T08:10:24;4.27;;;2.07;;
4634;SDS011;2330;48.158;11.816;2022-09-17T08:12:55;3.77;;;1.37;;
4634;SDS011;2330;48.158;11.816;2022-09-17T08:15:23;4.50;;;1.43;;
4634;SDS011;2330;48.158;11.816;2022-09-17T08:17:51;4.67;;;1.20;;
4634;SDS011;2330;48.158;11.816;2022-09-17T08:20:18;3.70;;;1.93;;
4634;SDS011;2330;48.158;11.816;2022-09-17T08:22:45;2.77;;;1.03;;
4634;SDS011;2330;48.158;11.816;2022-09-17T08:25:15;4.63;;;1.93;;
4634;SDS011;2330;48.158;11.816;2022-09-17T08:27:42;6.60;;;1.70;;
4634;SDS011;2330;48.158;11.816;2022-09-17T08:30:09;4.50;;;1.70;;
4634;SDS011;2330;48.158;11.816;2022-09-17T08:32:36;4.30;;;1.30;;
4634;SDS011;2330;48.158;11.816;2022-09-17T08:35:03;5.10;;;1.60;;
4634;SDS011;2330;48.158;11.816;2022-09-17T08:37:30;5.70;;;1.43;;
4634;SDS011;2330;48.158;11.816;2022-09-17T08:39:57;3.40;;;1.60;;
4634;SDS011;2330;48.158;11.816;2022-09-17T08:42:29;3.57;;;1.57;;
4634;SDS011;2330;48.158;11.816;2022-09-17T08:45:16;4.10;;;1.50;;
4634;SDS011;2330;48.158;11.816;2022-09-17T08:47:44;5.47;;;1.40;;
4634;SDS011;2330;48.158;11.816;2022-09-17T08:50:14;7.00;;;1.90;;
4634;SDS011;2330;48.158;11.816;2022-09-17T08:53:01;4.40;;;1.57;;
4634;SDS011;2330;48.158;11.816;2022-09-17T08:55:50;4.30;;;1.70;;
4634;SDS011;2330;48.158;11.816;2022-09-17T08:58:37;3.53;;;1.43;;
4634;SDS011;2330;48.158;11.816;2022-09-17T09:01:11;6.20;;;1.47;;
4634;SDS011;2330;48.158;11.816;2022-09-17T09:06:30;2.90;;;1.50;;
4634;SDS011;2330;48.158;11.816;2022-09-17T09:09:04;3.70;;;1.87;;
4634;SDS011;2330;48.158;11.816;2022-09-17T09:11:40;6.00;;;1.53;;
4634;SDS011;2330;48.158;11.816;2022-09-17T09:16:43;4.47;;;1.60;;
4634;SDS011;2330;48.158;11.816;2022-09-17T09:24:58;6.30;;;2.00;;
4634;SDS011;2330;48.158;11.816;2022-09-17T09:33:43;9.23;;;1.83;;
4634;SDS011;2330;48.158;11.816;2022-09-17T09:36:14;5.43;;;1.40;;
4634;SDS011;2330;48.158;11.816;2022-09-17T09:38:53;3.10;;;1.33;;
4634;SDS011;2330;48.158;11.816;2022-09-17T09:41:37;3.50;;;1.53;;
4634;SDS011;2330;48.158;11.816;2022-09-17T09:44:12;6.73;;;1.33;;
4634;SDS011;2330;48.158;11.816;2022-09-17T09:58:03;3.20;;;1.73;;
4634;SDS011;2330;48.158;11.816;2022-09-17T10:00:38;5.47;;;2.20;;
4634;SDS011;2330;48.158;11.816;2022-09-17T10:05:57;2.77;;;1.40;;
4634;SDS011;2330;48.158;11.816;2022-09-17T10:08:31;3.33;;;1.63;;
4634;SDS011;2330;48.158;11.816;2022-09-17T10:11:22;4.20;;;1.77;;
4634;SDS011;2330;48.158;11.816;2022-09-17T10:14:12;4.27;;;1.80;;
4634;SDS011;2330;48.158;11.816;2022-09-17T10:20:07;3.00;;;1.90;;
4634;SDS011;2330;48.158;11.816;2022-09-17T10:22:39;5.93;;;2.40;;
4634;SDS011;2330;48.158;11.816;2022-09-17T10:27:57;4.40;;;1.87;;
4634;SDS011;2330;48.158;11.816;2022-09-17T10:30:27;2.67;;;1.40;;
4634;SDS011;2330;48.158;11.816;2022-09-17T10:33:13;3.10;;;1.23;;
4634;SDS011;2330;48.158;11.816;2022-09-17T10:35:55;3.80;;;1.30;;
4634;SDS011;2330;48.158;11.816;2022-09-17T10:38:28;4.70;;;1.50;;
4634;SDS011;2330;48.158;11.816;2022-09-17T10:41:21;5.20;;;1.33;;
4634;SDS011;2330;48.158;11.816;2022-09-17T10:43:49;3.63;;;2.07;;
4634;SDS011;2330;48.158;11.816;2022-09-17T10:46:24;2.90;;;1.90;;
4634;SDS011;2330;48.158;11.816;2022-09-17T10:52:11;3.37;;;1.97;;
4634;SDS011;2330;48.158;11.816;2022-09-17T11:01:01;3.67;;;1.77;;
4634;SDS011;2330;48.158;11.816;2022-09-17T11:09:20;4.53;;;1.83;;
4634;SDS011;2330;48.158;11.816;2022-09-17T11:26:07;7.47;;;2.00;;
4634;SDS011;2330;48.158;11.816;2022-09-17T11:31:36;8.93;;;2.00;;
4634;SDS011;2330;48.158;11.816;2022-09-17T11:37:17;3.90;;;1.90;;
4634;SDS011;2330;48.158;11.816;2022-09-17T11:39:53;4.43;;;1.83;;
4634;SDS011;2330;48.158;11.816;2022-09-17T11:42:26;6.10;;;1.60;;
4634;SDS011;2330;48.158;11.816;2022-09-17T11:47:30;3.67;;;2.10;;
4634;SDS011;2330;48.158;11.816;2022-09-17T11:50:18;6.27;;;1.83;;
4634;SDS011;2330;48.158;11.816;2022-09-17T11:59:07;8.30;;;4.90;;
4634;SDS011;2330;48.158;11.816;2022-09-17T12:04:31;8.07;;;5.40;;
4634;SDS011;2330;48.158;11.816;2022-09-17T12:13:04;11.50;;;5.90;;
4634;SDS011;2330;48.158;11.816;2022-09-17T12:15:40;11.20;;;7.50;;
4634;SDS011;2330;48.158;11.816;2022-09-17T12:18:20;7.20;;;4.80;;
4634;SDS011;2330;48.158;11.816;2022-09-17T12:20:58;5.80;;;2.00;;
4634;SDS011;2330;48.158;11.816;2022-09-17T12:28:52;2.27;;;1.67;;
4634;SDS011;2330;48.158;11.816;2022-09-17T12:31:42;2.43;;;1.57;;
4634;SDS011;2330;48.158;11.816;2022-09-17T12:34:20;2.93;;;1.60;;
4634;SDS011;2330;48.158;11.816;2022-09-17T12:39:52;3.10;;;2.13;;
4634;SDS011;2330;48.158;11.816;2022-09-17T12:42:23;6.43;;;1.17;;
4634;SDS011;2330;48.158;11.816;2022-09-17T12:50:55;7.13;;;2.50;;
4634;SDS011;2330;48.158;11.816;2022-09-17T12:56:47;4.57;;;1.60;;
4634;SDS011;2330;48.158;11.816;2022-09-17T12:59:30;6.50;;;2.33;;
4634;SDS011;2330;48.158;11.816;2022-09-17T13:02:03;4.17;;;2.07;;
4634;SDS011;2330;48.158;11.816;2022-09-17T13:10:24;3.90;;;1.60;;
4634;SDS011;2330;48.158;11.816;2022-09-17T13:18:35;4.00;;;1.37;;
4634;SDS011;2330;48.158;11.816;2022-09-17T13:21:41;2.70;;;1.60;;
4634;SDS011;2330;48.158;11.816;2022-09-17T13:24:26;2.60;;;1.53;;
4634;SDS011;2330;48.158;11.816;2022-09-17T13:26:56;3.40;;;1.47;;
4634;SDS011;2330;48.158;11.816;2022-09-17T13:37:36;2.40;;;1.90;;
4634;SDS011;2330;48.158;11.816;2022-09-17T13:42:48;1.83;;;1.30;;
4634;SDS011;2330;48.158;11.816;2022-09-17T13:45:21;1.27;;;1.17;;
4634;SDS011;2330;48.158;11.816;2022-09-17T13:47:49;3.53;;;1.77;;
4634;SDS011;2330;48.158;11.816;2022-09-17T13:50:25;4.23;;;1.30;;
4634;SDS011;2330;48.158;11.816;2022-09-17T13:52:53;2.63;;;1.33;;
4634;SDS011;2330;48.158;11.816;2022-09-17T13:58:06;1.57;;;0.90;;
4634;SDS011;2330;48.158;11.816;2022-09-17T14:05:57;1.33;;;0.97;;
4634;SDS011;2330;48.158;11.816;2022-09-17T14:16:32;3.77;;;1.47;;
4634;SDS011;2330;48.158;11.816;2022-09-17T14:25:13;4.70;;;1.57;;
4634;SDS011;2330;48.158;11.816;2022-09-17T14:35:23;3.00;;;1.63;;
4634;SDS011;2330;48.158;11.816;2022-09-17T14:38:07;1.67;;;1.03;;
4634;SDS011;2330;48.158;11.816;2022-09-17T14:40:35;3.23;;;1.30;;
4634;SDS011;2330;48.158;11.816;2022-09-17T14:43:14;5.67;;;1.83;;
4634;SDS011;2330;48.158;11.816;2022-09-17T14:45:48;2.70;;;1.83;;
4634;SDS011;2330;48.158;11.816;2022-09-17T14:50:51;3.63;;;1.90;;
4634;SDS011;2330;48.158;11.816;2022-09-17T14:53:18;2.57;;;1.23;;
4634;SDS011;2330;48.158;11.816;2022-09-17T14:55:46;1.30;;;1.13;;
4634;SDS011;2330;48.158;11.816;2022-09-17T14:58:24;2.97;;;1.37;;
4634;SDS011;2330;48.158;11.816;2022-09-17T15:01:00;2.57;;;1.40;;
4634;SDS011;2330;48.158;11.816;2022-09-17T15:03:27;1.83;;;0.90;;
4634;SDS011;2330;48.158;11.816;2022-09-17T15:05:54;4.87;;;1.13;;
4634;SDS011;2330;48.158;11.816;2022-09-17T15:08:26;3.90;;;1.27;;
4634;SDS011;2330;48.158;11.816;2022-09-17T15:10:56;2.33;;;1.20;;
4634;SDS011;2330;48.158;11.816;2022-09-17T15:13:33;6.60;;;0.77;;
4634;SDS011;2330;48.158;11.816;2022-09-17T15:18:59;1.20;;;0.90;;
4634;SDS011;2330;48.158;11.816;2022-09-17T15:21:42;1.63;;;1.03;;
4634;SDS011;2330;48.158;11.816;2022-09-17T15:26:47;1.50;;;0.80;;
4634;SDS011;2330;48.158;11.816;2022-09-17T15:29:18;2.73;;;1.00;;
4634;SDS011;2330;48.158;11.816;2022-09-17T15:31:48;1.97;;;1.37;;
4634;SDS011;2330;48.158;11.816;2022-09-17T15:34:15;4.03;;;3.30;;
4634;SDS011;2330;48.158;11.816;2022-09-17T15:37:01;2.00;;;1.40;;
4634;SDS011;2330;48.158;11.816;2022-09-17T15:39:39;3.37;;;2.20;;
4634;SDS011;2330;48.158;11.816;2022-09-17T15:42:18;2.50;;;2.20;;
4634;SDS011;2330;48.158;11.816;2022-09-17T15:44:48;2.03;;;1.83;;
4634;SDS011;2330;48.158;11.816;2022-09-17T15:50:27;1.67;;;1.17;;
4634;SDS011;2330;48.158;11.816;2022-09-17T15:55:38;1.20;;;0.90;;
4634;SDS011;2330;48.158;11.816;2022-09-17T15:58:29;1.33;;;1.00;;
4634;SDS011;2330;48.158;11.816;2022-09-17T16:11:13;0.83;;;0.80;;
4634;SDS011;2330;48.158;11.816;2022-09-17T16:13:40;1.63;;;0.80;;
4634;SDS011;2330;48.158;11.816;2022-09-17T16:16:08;1.47;;;0.90;;
4634;SDS011;2330;48.158;11.816;2022-09-17T16:18:41;1.20;;;0.90;;
4634;SDS011;2330;48.158;11.816;2022-09-17T16:21:12;1.40;;;1.00;;
4634;SDS011;2330;48.158;11.816;2022-09-17T16:23:40;2.50;;;1.20;;
4634;SDS011;2330;48.158;11.816;2022-09-17T16:29:11;1.43;;;0.90;;
4634;SDS011;2330;48.158;11.816;2022-09-17T16:31:41;0.93;;;0.83;;
4634;SDS011;2330;48.158;11.816;2022-09-17T16:34:09;2.73;;;1.10;;
4634;SDS011;2330;48.158;11.816;2022-09-17T16:36:36;1.40;;;1.10;;
4634;SDS011;2330;48.158;11.816;2022-09-17T16:39:04;3.73;;;1.27;;
4634;SDS011;2330;48.158;11.816;2022-09-17T16:41:30;2.53;;;1.00;;
4634;SDS011;2330;48.158;11.816;2022-09-17T16:43:57;1.60;;;1.00;;
4634;SDS011;2330;48.158;11.816;2022-09-17T16:46:24;3.07;;;1.10;;
4634;SDS011;2330;48.158;11.816;2022-09-17T16:48:51;1.47;;;0.80;;
4634;SDS011;2330;48.158;11.816;2022-09-17T16:51:18;1.40;;;0.90;;
4634;SDS011;2330;48.158;11.816;2022-09-17T16:53:45;1.47;;;1.30;;
4634;SDS011;2330;48.158;11.816;2022-09-17T16:56:12;0.70;;;0.70;;
4634;SDS011;2330;48.158;11.816;2022-09-17T16:58:40;0.77;;;0.77;;
4634;SDS011;2330;48.158;11.816;2022-09-17T17:01:08;1.70;;;0.80;;
4634;SDS011;2330;48.158;11.816;2022-09-17T17:03:36;2.40;;;2.20;;
4634;SDS011;2330;48.158;11.816;2022-09-17T17:06:03;1.07;;;0.97;;
4634;SDS011;2330;48.158;11.816;2022-09-17T17:08:30;0.80;;;0.80;;
4634;SDS011;2330;48.158;11.816;2022-09-17T17:10:58;1.10;;;0.67;;
4634;SDS011;2330;48.158;11.816;2022-09-17T17:13:26;2.10;;;0.97;;
4634;SDS011;2330;48.158;11.816;2022-09-17T17:15:53;1.47;;;1.20;;
4634;SDS011;2330;48.158;11.816;2022-09-17T17:18:20;2.63;;;1.20;;
4634;SDS011;2330;48.158;11.816;2022-09-17T17:20:48;1.90;;;1.07;;
4634;SDS011;2330;48.158;11.816;2022-09-17T17:23:15;1.93;;;1.60;;
4634;SDS011;2330;48.158;11.816;2022-09-17T17:25:42;1.43;;;1.00;;
4634;SDS011;2330;48.158;11.816;2022-09-17T17:28:09;1.23;;;1.13;;
4634;SDS011;2330;48.158;11.816;2022-09-17T17:30:36;1.43;;;1.13;;
4634;SDS011;2330;48.158;11.816;2022-09-17T17:33:03;1.53;;;1.10;;
4634;SDS011;2330;48.158;11.816;2022-09-17T17:35:30;1.13;;;1.03;;
4634;SDS011;2330;48.158;11.816;2022-09-17T17:37:57;1.10;;;1.00;;
4634;SDS011;2330;48.158;11.816;2022-09-17T17:40:24;1.33;;;1.23;;
4634;SDS011;2330;48.158;11.816;2022-09-17T17:42:52;3.27;;;1.00;;
4634;SDS011;2330;48.158;11.816;2022-09-17T17:45:20;1.53;;;1.33;;
4634;SDS011;2330;48.158;11.816;2022-09-17T17:47:47;2.83;;;1.40;;
4634;SDS011;2330;48.158;11.816;2022-09-17T17:50:14;1.90;;;1.17;;
4634;SDS011;2330;48.158;11.816;2022-09-17T17:52:41;6.23;;;4.77;;
4634;SDS011;2330;48.158;11.816;2022-09-17T17:55:13;10.90;;;8.40;;
4634;SDS011;2330;48.158;11.816;2022-09-17T17:57:40;13.27;;;11.20;;
4634;SDS011;2330;48.158;11.816;2022-09-17T18:00:07;9.07;;;8.10;;
4634;SDS011;2330;48.158;11.816;2022-09-17T18:02:36;4.87;;;4.43;;
4634;SDS011;2330;48.158;11.816;2022-09-17T18:05:03;2.43;;;2.13;;
4634;SDS011;2330;48.158;11.816;2022-09-17T18:07:30;1.80;;;1.50;;
4634;SDS011;2330;48.158;11.816;2022-09-17T18:09:57;3.20;;;2.30;;
4634;SDS011;2330;48.158;11.816;2022-09-17T18:12:24;3.87;;;2.53;;
4634;SDS011;2330;48.158;11.816;2022-09-17T18:14:52;2.57;;;2.30;;
4634;SDS011;2330;48.158;11.816;2022-09-17T18:17:19;3.53;;;2.17;;
4634;SDS011;2330;48.158;11.816;2022-09-17T18:19:45;2.10;;;1.73;;
4634;SDS011;2330;48.158;11.816;2022-09-17T18:22:12;3.33;;;2.03;;
4634;SDS011;2330;48.158;11.816;2022-09-17T18:24:39;1.37;;;1.17;;
4634;SDS011;2330;48.158;11.816;2022-09-17T18:27:06;2.03;;;1.83;;
4634;SDS011;2330;48.158;11.816;2022-09-17T18:29:32;1.47;;;1.10;;
4634;SDS011;2330;48.158;11.816;2022-09-17T18:31:59;3.73;;;1.30;;
4634;SDS011;2330;48.158;11.816;2022-09-17T18:34:26;1.60;;;1.20;;
4634;SDS011;2330;48.158;11.816;2022-09-17T18:36:53;1.70;;;0.80;;
4634;SDS011;2330;48.158;11.816;2022-09-17T18:39:20;1.63;;;0.80;;
4634;SDS011;2330;48.158;11.816;2022-09-17T18:42:07;1.33;;;1.20;;
4634;SDS011;2330;48.158;11.816;2022-09-17T18:44:34;1.20;;;0.80;;
4634;SDS011;2330;48.158;11.816;2022-09-17T18:47:01;1.70;;;1.20;;
4634;SDS011;2330;48.158;11.816;2022-09-17T18:49:28;1.33;;;0.80;;
4634;SDS011;2330;48.158;11.816;2022-09-17T18:51:54;1.10;;;0.80;;
4634;SDS011;2330;48.158;11.816;2022-09-17T18:54:21;1.00;;;0.90;;
4634;SDS011;2330;48.158;11.816;2022-09-17T18:56:48;1.17;;;0.73;;
4634;SDS011;2330;48.158;11.816;2022-09-17T18:59:15;1.80;;;1.70;;
4634;SDS011;2330;48.158;11.816;2022-09-17T19:01:41;0.80;;;0.80;;
4634;SDS011;2330;48.158;11.816;2022-09-17T19:04:08;0.90;;;0.80;;
4634;SDS011;2330;48.158;11.816;2022-09-17T19:06:36;0.87;;;0.87;;
4634;SDS011;2330;48.158;11.816;2022-09-17T19:09:03;0.80;;;0.70;;